Time;durP1;ratioP1;P1;durP2;ratioP2;P2;SDS_P1;SDS_P2;PMS_P1;PMS_P2;Temp;Humidity;BMP_temperature;BMP_pressure;BME280_temperature;BME280_humidity;BME280_pressure;Samples;Min_cycle;Max_cycle;Signal;HPM_P1;HPM_P2
2022/01/26 00:07:42;;;;;;;30.93;17.67;;;4.60;99.90;;;;;;4905724;29;20595;-78
2022/01/26 00:10:08;;;;;;;23.53;15.23;;;4.60;99.90;;;;;;4923076;29;20047;-78
2022/01/26 00:12:33;;;;;;;32.33;17.30;;;4.60;99.90;;;;;;4924000;29;20054;-78
2022/01/26 00:14:59;;;;;;;53.40;21.67;;;4.60;99.90;;;;;;4925399;29;20079;-78
2022/01/26 00:17:24;;;;;;;37.37;22.00;;;4.60;99.90;;;;;;4925091;29;20146;-78
2022/01/26 00:22:42;;;;;;;34.47;21.03;;;4.60;99.90;;;;;;4941688;29;20101;-78
2022/01/26 00:28:08;;;;;;;34.67;19.70;;;4.60;99.90;;;;;;4919390;29;20081;-78
2022/01/26 00:38:39;;;;;;;35.63;19.20;;;4.60;99.90;;;;;;4924592;29;20114;-78
2022/01/26 00:41:11;;;;;;;38.90;20.27;;;4.60;99.90;;;;;;4941625;29;20052;-78
2022/01/26 00:43:43;;;;;;;28.73;19.45;;;4.60;99.90;;;;;;4924993;29;20058;-78
2022/01/26 00:46:09;;;;;;;40.03;21.07;;;4.60;99.90;;;;;;4928254;29;20047;-78
2022/01/26 00:48:38;;;;;;;37.60;20.23;;;4.60;99.90;;;;;;4945745;29;20043;-78
2022/01/26 00:51:06;;;;;;;25.20;16.53;;;4.60;99.90;;;;;;4945114;29;20050;-78
2022/01/26 00:53:36;;;;;;;30.47;17.50;;;4.60;99.90;;;;;;4927432;29;20081;-78
2022/01/26 00:56:04;;;;;;;29.93;18.53;;;4.60;99.90;;;;;;4943965;28;20047;-78
2022/01/26 00:58:30;;;;;;;46.37;20.87;;;4.60;99.90;;;;;;4928424;29;20047;-78
2022/01/26 01:00:58;;;;;;;34.43;21.27;;;4.60;99.90;;;;;;4927925;29;20051;-78
2022/01/26 01:03:24;;;;;;;21.33;18.87;;;4.60;99.90;;;;;;4953793;28;20066;-78
2022/01/26 01:05:58;;;;;;;30.27;20.93;;;4.70;99.90;;;;;;4946997;28;20070;-78
2022/01/26 01:08:25;;;;;;;39.30;21.27;;;4.60;99.90;;;;;;4946809;28;20061;-78
2022/01/26 01:10:53;;;;;;;40.10;21.90;;;4.60;99.90;;;;;;4963980;28;20066;-78
2022/01/26 01:13:22;;;;;;;39.57;21.13;;;4.60;99.90;;;;;;4963880;28;20252;-78
2022/01/26 01:15:51;;;;;;;32.23;20.27;;;4.60;99.90;;;;;;4964146;28;20058;-78
2022/01/26 01:18:24;;;;;;;33.40;20.70;;;4.70;99.90;;;;;;4946842;28;20821;-78
2022/01/26 01:26:47;;;;;;;29.43;21.73;;;4.60;99.90;;;;;;4935492;28;20058;-78
2022/01/26 01:29:35;;;;;;;30.57;20.23;;;4.60;99.90;;;;;;4947678;28;20396;-78
2022/01/26 01:32:02;;;;;;;21.10;16.17;;;4.60;99.90;;;;;;4928136;29;20047;-78
2022/01/26 01:34:36;;;;;;;24.80;17.17;;;4.60;99.90;;;;;;4945256;29;20114;-78
2022/01/26 01:37:15;;;;;;;35.40;21.17;;;4.60;99.90;;;;;;4942404;29;20074;-78
2022/01/26 01:39:41;;;;;;;36.90;21.70;;;4.60;99.90;;;;;;4945156;29;20043;-78
2022/01/26 01:42:08;;;;;;;26.50;17.40;;;4.60;99.90;;;;;;4962726;28;20065;-78
2022/01/26 01:44:34;;;;;;;31.90;18.90;;;4.60;99.90;;;;;;4964506;28;20051;-78
2022/01/26 01:47:00;;;;;;;41.67;18.13;;;4.60;99.90;;;;;;4946289;28;20046;-78
2022/01/26 01:49:26;;;;;;;37.13;21.53;;;4.60;99.90;;;;;;4963749;28;20046;-78
2022/01/26 01:51:57;;;;;;;34.10;17.07;;;4.60;99.90;;;;;;4946334;28;20043;-78
2022/01/26 01:54:23;;;;;;;22.10;18.75;;;4.60;99.90;;;;;;4946411;28;20046;-78
2022/01/26 01:56:56;;;;;;;34.87;18.67;;;4.60;99.90;;;;;;4963126;28;20093;-78
2022/01/26 01:59:29;;;;;;;26.13;18.90;;;4.60;99.90;;;;;;4963791;28;20049;-78
2022/01/26 02:01:55;;;;;;;35.42;19.50;;;4.60;99.90;;;;;;4946034;28;20082;-78
2022/01/26 02:04:20;;;;;;;26.40;18.87;;;4.60;99.90;;;;;;4947769;28;20055;-78
2022/01/26 02:06:46;;;;;;;23.77;20.27;;;4.60;99.90;;;;;;4926954;29;20036;-78
2022/01/26 02:09:12;;;;;;;31.43;19.87;;;4.60;99.90;;;;;;4926297;29;20051;-78
2022/01/26 02:11:44;;;;;;;25.20;18.30;;;4.60;99.90;;;;;;4944124;29;20042;-78
2022/01/26 02:14:17;;;;;;;29.47;19.37;;;4.60;99.90;;;;;;4927489;29;20046;-78
2022/01/26 02:58:50;;;;;;;32.03;18.37;;;4.40;99.90;;;;;;4914146;29;20070;-78
2022/01/26 03:01:42;;;;;;;27.80;18.13;;;4.50;99.90;;;;;;4925784;29;20525;-78
2022/01/26 03:07:07;;;;;;;25.83;20.23;;;4.50;99.90;;;;;;4929911;28;20071;-77
2022/01/26 03:09:39;;;;;;;32.35;18.88;;;4.50;99.90;;;;;;4960900;28;20042;-78
2022/01/26 03:12:06;;;;;;;32.08;21.08;;;4.50;99.90;;;;;;4962178;28;20292;-78
2022/01/26 03:17:30;;;;;;;25.80;22.63;;;4.50;99.90;;;;;;4961835;28;20054;-78
2022/01/26 03:20:01;;;;;;;28.60;19.67;;;4.50;99.90;;;;;;4944259;28;20502;-78
2022/01/26 03:30:33;;;;;;;23.30;16.10;;;4.50;99.90;;;;;;4945121;28;20489;-78
2022/01/26 03:35:50;;;;;;;31.83;18.07;;;4.50;99.90;;;;;;4961881;28;20059;-78
2022/01/26 03:38:23;;;;;;;22.87;16.20;;;4.50;99.90;;;;;;4944108;28;20097;-78
2022/01/26 03:40:59;;;;;;;23.70;20.77;;;4.50;99.90;;;;;;4944485;28;20125;-78
2022/01/26 03:43:24;;;;;;;33.97;20.77;;;4.50;99.90;;;;;;4961181;28;20050;-78
2022/01/26 03:45:50;;;;;;;27.90;22.03;;;4.50;99.90;;;;;;4961950;28;20047;-78
2022/01/26 03:48:15;;;;;;;34.83;20.73;;;4.50;99.90;;;;;;4944950;28;20058;-78
2022/01/26 03:50:41;;;;;;;23.77;17.87;;;4.50;99.90;;;;;;4961834;28;20129;-78
2022/01/26 03:53:06;;;;;;;28.93;21.53;;;4.50;99.90;;;;;;4943810;28;20059;-78
2022/01/26 03:55:32;;;;;;;33.10;18.47;;;4.50;99.90;;;;;;4961731;28;20122;-78
2022/01/26 03:57:57;;;;;;;21.73;15.80;;;4.50;99.90;;;;;;4961689;28;20050;-78
2022/01/26 04:00:23;;;;;;;24.47;17.77;;;4.50;99.90;;;;;;4961315;28;20046;-78
2022/01/26 04:02:48;;;;;;;24.30;17.90;;;4.40;99.90;;;;;;4943961;28;20133;-78
2022/01/26 04:05:14;;;;;;;30.57;18.27;;;4.50;99.90;;;;;;4962434;28;20046;-78
2022/01/26 04:07:41;;;;;;;32.30;17.58;;;4.40;99.90;;;;;;4961288;28;20125;-78
2022/01/26 04:10:19;;;;;;;22.30;18.08;;;4.50;99.90;;;;;;4960887;28;20564;-78
2022/01/26 04:12:45;;;;;;;29.23;20.13;;;4.40;99.90;;;;;;4944330;28;20070;-78
2022/01/26 04:15:22;;;;;;;21.13;18.20;;;4.40;99.90;;;;;;4961549;28;20046;-78
2022/01/26 04:17:48;;;;;;;25.80;17.87;;;4.40;99.90;;;;;;4944706;28;20138;-78
2022/01/26 04:20:13;;;;;;;27.93;19.47;;;4.40;99.90;;;;;;4946206;28;20047;-78
2022/01/26 04:22:50;;;;;;;28.47;20.83;;;4.40;99.90;;;;;;4964725;28;20039;-78
2022/01/26 04:25:20;;;;;;;25.00;18.83;;;4.50;99.90;;;;;;4928650;29;20047;-78
2022/01/26 04:27:49;;;;;;;26.70;20.33;;;4.40;99.90;;;;;;4945707;29;20482;-78
2022/01/26 04:30:15;;;;;;;31.83;20.00;;;4.50;99.90;;;;;;4952855;28;20042;-78
2022/01/26 04:32:40;;;;;;;26.57;20.13;;;4.40;99.90;;;;;;4948313;28;20072;-78
2022/01/26 04:35:08;;;;;;;21.87;15.63;;;4.40;99.90;;;;;;4948157;28;20409;-78
2022/01/26 04:38:05;;;;;;;23.80;16.10;;;4.40;99.90;;;;;;4947427;28;20541;-78
2022/01/26 04:40:28;;;;;;;36.33;20.60;;;4.40;99.90;;;;;;4947893;28;20069;-78
2022/01/26 04:43:02;;;;;;;28.60;17.60;;;4.40;99.90;;;;;;4964813;28;20046;-78
2022/01/26 04:45:28;;;;;;;25.30;16.03;;;4.50;99.90;;;;;;4948122;28;20055;-78
2022/01/26 04:47:53;;;;;;;27.13;19.50;;;4.40;99.90;;;;;;4964504;28;20053;-78
2022/01/26 04:50:19;;;;;;;27.50;17.27;;;4.50;99.90;;;;;;4947715;28;20053;-78
2022/01/26 04:52:46;;;;;;;26.17;19.27;;;4.40;99.90;;;;;;4964139;28;20046;-78
2022/01/26 04:55:13;;;;;;;36.80;17.37;;;4.50;99.90;;;;;;4964697;28;20524;-78
2022/01/26 04:57:38;;;;;;;25.37;15.40;;;4.50;99.90;;;;;;4965139;28;20082;-78
2022/01/26 05:00:06;;;;;;;27.97;18.80;;;4.50;99.90;;;;;;4964396;28;21147;-78
2022/01/26 05:02:32;;;;;;;30.17;21.47;;;4.50;99.90;;;;;;4964368;28;20051;-78
2022/01/26 05:04:57;;;;;;;33.53;18.47;;;4.50;99.90;;;;;;4964739;28;20062;-78
2022/01/26 05:07:23;;;;;;;28.77;18.57;;;4.50;99.90;;;;;;4946690;28;20051;-78
2022/01/26 05:09:48;;;;;;;22.70;15.23;;;4.50;99.90;;;;;;4963666;28;20046;-78
2022/01/26 05:12:15;;;;;;;21.40;14.57;;;4.50;99.90;;;;;;4965171;28;20042;-78
2022/01/26 05:14:43;;;;;;;23.20;13.43;;;4.50;99.90;;;;;;4964976;28;20460;-78
2022/01/26 05:17:08;;;;;;;23.20;16.93;;;4.50;99.90;;;;;;4964603;28;20092;-78
2022/01/26 05:19:34;;;;;;;35.87;16.63;;;4.40;99.90;;;;;;4964309;28;20755;-78
2022/01/26 05:21:59;;;;;;;23.57;16.67;;;4.50;99.90;;;;;;4963100;28;20043;-78
2022/01/26 05:24:25;;;;;;;23.60;15.57;;;4.40;99.90;;;;;;4963766;28;20035;-78
2022/01/26 05:26:50;;;;;;;28.27;17.10;;;4.40;99.90;;;;;;4964288;28;20130;-78
2022/01/26 05:29:16;;;;;;;26.53;17.77;;;4.50;99.90;;;;;;4963984;28;20141;-78
2022/01/26 05:31:42;;;;;;;35.60;18.00;;;4.50;99.90;;;;;;4963888;28;20442;-78
2022/01/26 05:34:08;;;;;;;27.67;19.03;;;4.40;99.90;;;;;;4964344;28;20042;-78
2022/01/26 05:36:33;;;;;;;23.10;13.90;;;4.40;99.90;;;;;;4962847;28;20477;-78
2022/01/26 05:38:59;;;;;;;27.23;16.17;;;4.40;99.90;;;;;;4946465;28;20110;-78
2022/01/26 05:41:25;;;;;;;39.07;20.10;;;4.50;99.90;;;;;;4946749;28;20686;-78
2022/01/26 05:43:50;;;;;;;26.83;17.53;;;4.50;99.90;;;;;;4946184;28;20046;-78
2022/01/26 05:49:11;;;;;;;27.30;14.93;;;4.40;99.90;;;;;;4934758;29;20047;-79
2022/01/26 05:51:36;;;;;;;35.07;17.53;;;4.40;99.90;;;;;;4943644;29;20043;-80
2022/01/26 05:54:03;;;;;;;32.23;18.33;;;4.40;99.90;;;;;;4926713;29;20043;-79
2022/01/26 05:56:29;;;;;;;30.03;18.17;;;4.50;99.90;;;;;;4962601;28;20126;-79
2022/01/26 05:58:54;;;;;;;30.57;19.80;;;4.50;99.90;;;;;;4945949;28;20057;-79
2022/01/26 06:01:21;;;;;;;27.27;17.20;;;4.40;99.90;;;;;;4946326;28;20050;-79
2022/01/26 06:03:47;;;;;;;34.43;18.73;;;4.40;99.90;;;;;;4945775;28;20062;-79
2022/01/26 06:06:13;;;;;;;30.83;16.97;;;4.50;99.90;;;;;;4963525;28;20117;-79
2022/01/26 06:08:38;;;;;;;26.13;18.33;;;4.40;99.90;;;;;;4946442;28;20133;-79
2022/01/26 06:11:04;;;;;;;28.40;18.47;;;4.40;99.90;;;;;;4962582;28;20113;-79
2022/01/26 06:13:30;;;;;;;21.53;18.50;;;4.50;99.90;;;;;;4963063;28;20409;-79
2022/01/26 06:15:56;;;;;;;37.67;20.00;;;4.50;99.90;;;;;;4945353;28;20528;-80
2022/01/26 06:18:21;;;;;;;27.53;18.43;;;4.50;99.90;;;;;;4938012;28;20501;-78
2022/01/26 06:20:48;;;;;;;28.27;17.50;;;4.50;99.90;;;;;;4953376;28;20036;-78
2022/01/26 06:23:14;;;;;;;33.13;20.73;;;4.50;99.90;;;;;;4960996;28;20125;-78
2022/01/26 06:25:40;;;;;;;33.97;17.83;;;4.50;99.90;;;;;;4963480;28;20085;-78
2022/01/26 06:28:11;;;;;;;26.97;22.00;;;4.50;99.90;;;;;;4944333;28;20057;-78
2022/01/26 06:30:37;;;;;;;21.27;16.57;;;4.50;99.90;;;;;;4955780;28;20038;-79
2022/01/26 06:33:03;;;;;;;21.20;16.97;;;4.50;99.90;;;;;;4939933;28;20047;-79
2022/01/26 06:35:29;;;;;;;29.30;19.07;;;4.60;99.90;;;;;;4962570;28;20043;-77
2022/01/26 06:37:55;;;;;;;31.20;21.93;;;4.50;99.90;;;;;;4961503;28;20523;-77
2022/01/26 06:40:21;;;;;;;35.57;20.47;;;4.60;99.90;;;;;;4958862;28;20233;-77
2022/01/26 06:42:57;;;;;;;27.90;18.80;;;4.50;99.90;;;;;;4944125;28;20058;-78
2022/01/26 06:45:26;;;;;;;40.93;18.70;;;4.50;99.90;;;;;;4944897;28;20050;-78
2022/01/26 06:48:11;;;;;;;32.10;17.33;;;4.50;99.90;;;;;;4945177;28;20414;-78
2022/01/26 06:50:37;;;;;;;34.40;20.07;;;4.50;99.90;;;;;;4962674;28;20101;-78
2022/01/26 06:53:02;;;;;;;23.90;16.70;;;4.60;99.90;;;;;;4960795;28;20042;-77
2022/01/26 06:55:28;;;;;;;32.57;19.27;;;4.50;99.90;;;;;;4930383;28;20062;-77
2022/01/26 06:57:54;;;;;;;30.57;18.10;;;4.60;99.90;;;;;;4961281;28;20035;-77
2022/01/26 07:00:19;;;;;;;23.53;17.87;;;4.50;99.90;;;;;;4962278;28;20038;-77
2022/01/26 07:02:45;;;;;;;20.13;14.83;;;4.50;99.90;;;;;;4962056;28;20110;-77
2022/01/26 07:05:12;;;;;;;27.63;16.33;;;4.60;99.90;;;;;;4942924;28;20146;-77
2022/01/26 07:07:38;;;;;;;21.37;14.37;;;4.50;99.90;;;;;;4959882;28;20057;-76
2022/01/26 07:10:05;;;;;;;30.13;14.37;;;4.50;99.90;;;;;;4954830;28;20035;-78
2022/01/26 07:12:31;;;;;;;24.23;13.43;;;4.60;99.90;;;;;;4955721;28;20405;-78
2022/01/26 07:23:10;;;;;;;24.07;15.07;;;4.60;99.90;;;;;;4961140;28;20535;-77
2022/01/26 07:25:36;;;;;;;20.47;12.80;;;4.60;99.90;;;;;;4961868;28;20051;-76
2022/01/26 07:28:04;;;;;;;22.13;16.55;;;4.60;99.90;;;;;;4962271;28;20043;-77
2022/01/26 07:30:35;;;;;;;24.93;15.30;;;4.60;99.90;;;;;;4959628;28;20039;-77
2022/01/26 07:33:01;;;;;;;38.63;19.02;;;4.60;99.90;;;;;;4960965;28;20074;-79
2022/01/26 07:35:26;;;;;;;24.43;13.17;;;4.60;99.90;;;;;;4961383;28;20074;-76
2022/01/26 07:37:56;;;;;;;22.15;16.38;;;4.50;99.90;;;;;;4959102;28;20049;-80
2022/01/26 07:40:22;;;;;;;23.73;16.07;;;4.60;99.90;;;;;;4951504;28;20048;-79
2022/01/26 07:42:48;;;;;;;22.17;14.37;;;4.60;99.90;;;;;;4935478;28;20043;-78
2022/01/26 07:45:13;;;;;;;31.40;19.15;;;4.60;99.90;;;;;;4958237;28;20043;-79
2022/01/26 07:47:39;;;;;;;30.73;15.83;;;4.60;99.90;;;;;;4951110;28;20038;-77
2022/01/26 07:50:08;;;;;;;24.17;19.90;;;4.60;99.90;;;;;;4933980;28;20047;-77
2022/01/26 07:52:38;;;;;;;25.87;17.87;;;4.60;99.90;;;;;;4939084;28;20081;-77
2022/01/26 07:55:09;;;;;;;28.90;17.00;;;4.60;99.90;;;;;;4944353;28;20054;-76
2022/01/26 07:57:35;;;;;;;22.83;18.80;;;4.60;99.90;;;;;;4963458;28;20039;-76
2022/01/26 08:00:01;;;;;;;25.67;16.90;;;4.60;99.90;;;;;;4965626;28;20030;-76
2022/01/26 08:02:27;;;;;;;24.30;18.63;;;4.60;99.90;;;;;;4947221;28;20038;-76
2022/01/26 08:04:52;;;;;;;41.10;21.20;;;4.60;99.90;;;;;;4949609;28;20556;-77
2022/01/26 08:07:18;;;;;;;27.97;17.37;;;4.60;99.90;;;;;;4949458;28;20050;-76
2022/01/26 08:09:44;;;;;;;32.13;19.63;;;4.60;99.90;;;;;;4935220;28;20047;-76
2022/01/26 08:12:17;;;;;;;35.30;18.90;;;4.60;99.90;;;;;;4946607;28;20055;-76
2022/01/26 08:14:43;;;;;;;27.70;16.53;;;4.60;99.90;;;;;;4965037;28;20089;-76
2022/01/26 08:17:09;;;;;;;21.83;19.40;;;4.60;99.90;;;;;;4953374;28;20074;-76
2022/01/26 08:19:36;;;;;;;32.50;19.20;;;4.60;99.90;;;;;;4961976;28;20490;-76
2022/01/26 08:22:02;;;;;;;22.50;19.23;;;4.60;99.90;;;;;;4949220;28;20085;-76
2022/01/26 08:24:29;;;;;;;26.20;17.30;;;4.60;99.90;;;;;;4950527;28;20488;-76
2022/01/26 08:26:58;;;;;;;24.87;17.00;;;4.60;99.90;;;;;;4967383;28;20634;-75
2022/01/26 08:29:31;;;;;;;35.00;19.10;;;4.60;99.90;;;;;;4966497;28;20039;-77
2022/01/26 08:31:57;;;;;;;26.10;18.77;;;4.60;99.90;;;;;;4947346;28;20051;-77
2022/01/26 08:34:22;;;;;;;27.20;17.33;;;4.60;99.90;;;;;;4966298;28;20655;-77
2022/01/26 08:36:48;;;;;;;34.63;18.67;;;4.60;99.90;;;;;;4965309;28;20172;-77
2022/01/26 08:39:15;;;;;;;21.93;15.80;;;4.60;99.90;;;;;;4967108;28;20051;-77
2022/01/26 08:41:42;;;;;;;22.37;17.77;;;4.60;99.90;;;;;;4949188;28;20175;-77
2022/01/26 08:44:07;;;;;;;32.80;18.03;;;4.60;99.90;;;;;;4965441;28;20096;-77
2022/01/26 08:46:33;;;;;;;38.20;17.25;;;4.60;99.90;;;;;;4965975;28;20628;-77
2022/01/26 08:48:59;;;;;;;32.28;16.17;;;4.60;99.90;;;;;;4948983;28;20062;-77
2022/01/26 08:51:24;;;;;;;22.08;16.17;;;4.60;99.90;;;;;;4948383;28;20039;-77
2022/01/26 08:53:50;;;;;;;25.02;14.90;;;4.70;99.90;;;;;;4965764;28;20406;-77
2022/01/26 08:56:17;;;;;;;28.10;14.77;;;4.60;99.90;;;;;;4948771;28;20074;-77
2022/01/26 08:58:42;;;;;;;15.55;12.35;;;4.60;99.90;;;;;;4949724;28;20141;-77
2022/01/26 09:01:08;;;;;;;35.33;15.75;;;4.60;99.90;;;;;;4966028;28;20141;-77
2022/01/26 09:03:39;;;;;;;25.25;15.10;;;4.70;99.90;;;;;;4948585;28;20058;-77
2022/01/26 09:06:08;;;;;;;22.92;15.00;;;4.70;99.90;;;;;;4964244;28;20311;-77
2022/01/26 09:08:35;;;;;;;22.63;14.85;;;4.70;99.90;;;;;;4962550;28;20089;-77
2022/01/26 09:11:02;;;;;;;23.70;12.80;;;4.70;99.90;;;;;;4962649;28;20046;-77
2022/01/26 09:13:30;;;;;;;22.70;13.00;;;4.70;99.90;;;;;;4962917;28;20055;-76
2022/01/26 09:15:56;;;;;;;27.03;14.57;;;4.70;99.90;;;;;;4945865;28;20058;-77
2022/01/26 09:18:32;;;;;;;23.70;12.50;;;4.70;99.90;;;;;;4946069;28;20435;-76
2022/01/26 09:20:58;;;;;;;13.17;11.20;;;4.70;99.90;;;;;;4962012;28;20360;-77
2022/01/26 09:23:24;;;;;;;15.13;11.53;;;4.70;99.90;;;;;;4963454;28;20039;-77
2022/01/26 09:25:50;;;;;;;23.95;11.90;;;4.70;99.90;;;;;;4962557;28;20046;-77
2022/01/26 09:28:15;;;;;;;24.30;14.07;;;4.70;99.90;;;;;;4962639;28;20101;-77
2022/01/26 09:30:41;;;;;;;24.17;15.53;;;4.70;99.90;;;;;;4962870;28;20389;-77
2022/01/26 09:33:06;;;;;;;23.43;12.73;;;4.70;99.90;;;;;;4962727;28;20062;-77
2022/01/26 09:35:32;;;;;;;18.67;11.07;;;4.70;99.90;;;;;;4963054;28;20043;-77
2022/01/26 09:37:57;;;;;;;12.82;10.50;;;4.70;99.90;;;;;;4943797;28;20134;-77
2022/01/26 09:40:23;;;;;;;16.48;11.75;;;4.70;99.90;;;;;;4962712;28;20050;-76
2022/01/26 09:42:51;;;;;;;18.77;13.32;;;4.70;99.90;;;;;;4944735;28;20384;-77
2022/01/26 09:45:17;;;;;;;21.77;14.00;;;4.70;99.90;;;;;;4962781;28;20484;-77
2022/01/26 09:47:46;;;;;;;22.60;17.67;;;4.70;99.90;;;;;;4962887;28;20165;-76
2022/01/26 09:50:12;;;;;;;20.43;13.43;;;4.70;99.90;;;;;;4945052;28;20523;-76
2022/01/26 09:52:44;;;;;;;30.08;18.05;;;4.70;99.90;;;;;;4944397;28;20047;-76
2022/01/26 09:55:10;;;;;;;29.67;16.77;;;4.80;99.90;;;;;;4944900;28;20054;-77
2022/01/26 09:57:38;;;;;;;45.17;13.83;;;4.70;99.90;;;;;;4962219;28;20034;-77
2022/01/26 10:00:05;;;;;;;19.07;14.90;;;4.80;99.90;;;;;;4944513;28;20051;-77
2022/01/26 10:02:33;;;;;;;27.20;14.37;;;4.80;99.90;;;;;;4962121;28;20174;-77
2022/01/26 10:05:10;;;;;;;22.90;14.00;;;4.80;99.90;;;;;;4962342;28;20055;-76
2022/01/26 10:15:27;;;;;;;21.53;16.13;;;4.80;99.90;;;;;;4944882;28;20501;-77
2022/01/26 10:18:54;;;;;;;24.17;14.77;;;4.80;99.90;;;;;;4942153;28;20042;-78
2022/01/26 10:21:20;;;;;;;;;;;4.80;99.90;;;;;;4962316;28;20038;-76
2022/01/26 10:23:45;;;;;;;15.77;12.33;;;4.90;99.90;;;;;;4945440;28;19949;-77
2022/01/26 10:26:19;;;;;;;17.20;10.87;;;4.90;99.90;;;;;;4963835;28;20088;-77
2022/01/26 10:29:05;;;;;;;25.17;13.50;;;4.90;99.90;;;;;;4942314;28;20097;-84
2022/01/26 10:31:36;;;;;;;13.07;11.83;;;4.90;99.90;;;;;;4962655;28;20060;-79
2022/01/26 10:34:17;;;;;;;24.25;14.20;;;4.90;99.90;;;;;;4961675;28;20051;-79
2022/01/26 10:36:50;;;;;;;14.60;11.73;;;4.80;99.90;;;;;;4945436;28;20047;-79
2022/01/26 10:39:27;;;;;;;23.00;14.73;;;4.90;99.90;;;;;;4945070;28;20046;-79
2022/01/26 10:41:59;;;;;;;22.67;15.77;;;4.90;99.90;;;;;;4962029;28;20070;-80
2022/01/26 10:44:40;;;;;;;27.33;17.50;;;4.90;99.90;;;;;;4962524;28;20123;-79
2022/01/26 10:47:08;;;;;;;34.40;13.02;;;4.90;99.90;;;;;;4943646;29;20039;-80
2022/01/26 10:52:24;;;;;;;20.70;12.00;;;4.90;99.90;;;;;;4945028;28;20058;-79
2022/01/26 10:54:51;;;;;;;23.10;13.47;;;4.90;99.90;;;;;;4962600;28;20043;-78
2022/01/26 10:57:20;;;;;;;29.70;15.20;;;4.90;99.90;;;;;;4943840;28;20061;-87
2022/01/26 10:59:50;;;;;;;25.48;13.02;;;4.90;99.90;;;;;;4954127;28;20094;-86
2022/01/26 11:02:21;;;;;;;39.43;16.27;;;4.90;99.90;;;;;;4945792;28;20113;-84
2022/01/26 11:04:47;;;;;;;24.15;13.60;;;4.90;99.90;;;;;;4944523;28;20109;-84
2022/01/26 11:07:14;;;;;;;14.53;12.80;;;5.00;99.90;;;;;;4961662;28;20130;-87
2022/01/26 11:09:43;;;;;;;19.90;12.80;;;5.00;99.90;;;;;;4934228;28;20538;-83
2022/01/26 11:12:11;;;;;;;17.65;14.27;;;5.00;99.90;;;;;;4933269;28;20051;-81
2022/01/26 11:14:44;;;;;;;22.35;11.63;;;5.00;99.90;;;;;;4939231;28;20396;-81
2022/01/26 11:17:38;;;;;;;23.50;15.60;;;5.00;99.90;;;;;;4936208;28;20191;-84
2022/01/26 11:20:34;;;;;;;32.05;16.75;;;5.00;99.90;;;;;;4955047;28;20042;-83
2022/01/26 11:23:04;;;;;;;29.50;16.33;;;5.00;99.90;;;;;;4958547;28;20051;-82
2022/01/26 11:25:45;;;;;;;22.35;14.23;;;5.00;99.90;;;;;;4944148;28;20051;-84
2022/01/26 11:28:18;;;;;;;24.07;16.70;;;5.10;99.90;;;;;;4945131;28;20055;-84
2022/01/26 11:30:44;;;;;;;22.05;13.73;;;5.10;99.90;;;;;;4949908;28;20256;-84
2022/01/26 11:33:22;;;;;;;36.67;15.03;;;5.10;99.90;;;;;;4946599;28;20035;-82
2022/01/26 11:35:52;;;;;;;18.10;15.30;;;5.10;99.90;;;;;;4951383;28;20035;-84
2022/01/26 11:46:31;;;;;;;20.30;15.65;;;5.20;99.90;;;;;;4961109;28;20081;-81
2022/01/26 11:49:10;;;;;;;17.10;15.05;;;5.20;99.90;;;;;;4951012;28;20050;-82
2022/01/26 11:51:43;;;;;;;19.97;14.83;;;5.20;99.90;;;;;;4935964;28;20093;-86
2022/01/26 11:54:19;;;;;;;22.92;12.63;;;5.20;99.90;;;;;;4943260;28;20386;-83
2022/01/26 11:57:05;;;;;;;30.48;17.58;;;5.30;99.90;;;;;;4943573;28;20154;-78
2022/01/26 11:59:33;;;;;;;25.60;11.25;;;5.30;99.90;;;;;;4961153;28;20433;-78
2022/01/26 12:02:03;;;;;;;23.13;12.60;;;5.30;99.90;;;;;;4943507;28;20054;-78
2022/01/26 12:04:33;;;;;;;13.85;10.93;;;5.30;99.90;;;;;;4961031;28;20066;-78
2022/01/26 12:07:23;;;;;;;32.60;13.30;;;5.30;99.90;;;;;;4942761;28;20059;-79
2022/01/26 12:09:49;;;;;;;22.48;13.93;;;5.40;99.90;;;;;;4943622;28;20054;-81
2022/01/26 12:12:19;;;;;;;33.10;14.93;;;5.40;99.90;;;;;;4961907;28;20359;-80
2022/01/26 12:15:08;;;;;;;21.17;11.82;;;5.40;99.90;;;;;;4943219;28;20139;-80
2022/01/26 12:17:40;;;;;;;31.65;12.00;;;5.40;99.90;;;;;;4940216;28;20143;-79
2022/01/26 12:32:02;;;;;;;19.38;13.80;;;5.40;99.90;;;;;;4932255;28;20034;-79
2022/01/26 12:34:35;;;;;;;20.50;13.18;;;5.50;99.90;;;;;;4956414;28;20043;-79
2022/01/26 12:43:21;;;;;;;19.00;13.85;;;5.50;99.90;;;;;;4947298;28;20191;-81
2022/01/26 12:45:27;;;;;;;27.85;16.73;;;5.50;99.90;;;;;;4930512;28;20058;-80
2022/01/26 12:47:55;;;;;;;24.13;13.70;;;5.50;99.90;;;;;;4960856;28;20457;-80
2022/01/26 12:50:23;;;;;;;19.13;13.48;;;5.60;99.90;;;;;;4952366;28;20414;-78
2022/01/26 12:52:51;;;;;;;19.60;13.30;;;5.60;99.90;;;;;;4953318;28;20350;-78
2022/01/26 12:55:21;;;;;;;16.35;10.82;;;5.60;99.90;;;;;;4957391;28;20046;-79
2022/01/26 12:57:47;;;;;;;33.42;11.70;;;5.60;99.90;;;;;;4956071;28;20372;-80
2022/01/26 13:00:13;;;;;;;23.42;13.38;;;5.60;99.90;;;;;;4955593;28;20035;-79
2022/01/26 13:02:39;;;;;;;13.98;12.07;;;5.60;99.90;;;;;;4936131;28;20387;-80
2022/01/26 13:05:05;;;;;;;14.82;12.13;;;5.60;99.90;;;;;;4953497;28;20633;-79
2022/01/26 13:07:30;;;;;;;14.30;10.38;;;5.60;99.90;;;;;;4945692;28;20543;-80
2022/01/26 13:09:56;;;;;;;13.95;11.98;;;5.60;99.90;;;;;;4945744;29;20114;-81
2022/01/26 13:12:30;;;;;;;19.67;11.63;;;5.70;99.90;;;;;;4945201;29;20054;-79
2022/01/26 13:15:12;;;;;;;21.20;11.38;;;5.70;99.90;;;;;;4962945;28;20490;-77
2022/01/26 13:17:47;;;;;;;21.15;13.35;;;5.70;99.90;;;;;;4964003;28;20039;-78
2022/01/26 13:20:41;;;;;;;20.67;10.05;;;5.70;99.90;;;;;;4962615;28;20129;-78
2022/01/26 13:23:38;;;;;;;11.35;9.55;;;5.70;99.90;;;;;;4963602;28;20541;-78
2022/01/26 13:36:59;;;;;;;29.23;14.70;;;5.70;99.90;;;;;;4961819;28;20051;-78
2022/01/26 13:39:36;;;;;;;22.40;12.68;;;5.70;99.90;;;;;;4959801;28;20043;-79
2022/01/26 13:52:39;;;;;;;25.05;14.38;;;5.80;99.90;;;;;;4958057;28;20441;-77
2022/01/26 14:00:20;;;;;;;14.65;11.25;;;5.80;99.90;;;;;;4943308;28;20433;-77
2022/01/26 14:02:48;;;;;;;16.75;10.10;;;5.80;99.90;;;;;;4958501;28;20050;-77
2022/01/26 14:05:14;;;;;;;14.63;11.48;;;5.80;99.90;;;;;;4960205;28;20106;-77
2022/01/26 14:07:40;;;;;;;22.20;13.90;;;5.80;99.90;;;;;;4961212;28;20051;-77
2022/01/26 14:10:06;;;;;;;21.05;11.65;;;5.90;99.90;;;;;;4941018;28;20102;-77
2022/01/26 14:12:37;;;;;;;13.18;9.75;;;5.90;99.90;;;;;;4962517;28;20051;-77
2022/01/26 14:15:06;;;;;;;17.23;10.88;;;5.90;99.90;;;;;;4962361;28;20065;-78
2022/01/26 14:22:39;;;;;;;15.32;12.02;;;5.90;99.90;;;;;;4962903;28;20058;-75
2022/01/26 14:25:26;;;;;;;20.83;14.23;;;5.90;99.90;;;;;;4963123;28;20047;-78
2022/01/26 14:28:02;;;;;;;20.85;10.98;;;5.90;99.90;;;;;;4945778;28;20050;-87
2022/01/26 14:30:38;;;;;;;13.35;10.07;;;5.90;99.90;;;;;;4959506;28;20055;-82
2022/01/26 14:52:16;;;;;;;19.85;10.02;;;6.00;99.90;;;;;;4940567;28;20065;-79
2022/01/26 15:19:49;;;;;;;12.30;7.70;;;6.00;99.90;;;;;;4939190;28;20105;-79
2022/01/26 15:30:05;;;;;;;21.65;11.80;;;6.00;99.90;;;;;;4935937;28;20516;-79
2022/01/26 15:33:11;;;;;;;13.20;8.73;;;6.00;99.90;;;;;;4954312;28;20051;-77
2022/01/26 15:35:39;;;;;;;14.75;10.43;;;6.00;99.90;;;;;;4943156;28;20047;-78
2022/01/26 15:51:18;;;;;;;14.63;10.57;;;6.10;99.90;;;;;;4932814;28;20511;-79
2022/01/26 16:05:18;;;;;;;14.75;10.55;;;6.10;99.90;;;;;;4952374;28;20497;-78
2022/01/26 16:08:07;;;;;;;16.50;9.43;;;6.10;99.90;;;;;;4937635;28;20074;-79
2022/01/26 17:02:18;;;;;;;30.35;13.43;;;6.20;99.90;;;;;;4954786;28;20061;-78
2022/01/26 17:25:15;;;;;;;25.83;10.25;;;6.30;99.90;;;;;;4894008;29;20146;-81
2022/01/26 17:37:46;;;;;;;13.18;8.77;;;6.30;99.90;;;;;;4942958;29;20047;-80
2022/01/26 18:16:57;;;;;;;13.52;10.38;;;6.30;99.90;;;;;;4934942;28;20051;-80
2022/01/26 18:51:49;;;;;;;13.25;10.20;;;6.30;99.90;;;;;;4908408;28;20059;-84
2022/01/26 18:54:15;;;;;;;19.55;10.52;;;6.40;99.90;;;;;;4907108;28;20074;-81
2022/01/26 18:56:41;;;;;;;15.48;10.05;;;6.30;99.90;;;;;;4934504;28;20119;-77
2022/01/26 18:59:08;;;;;;;11.82;8.80;;;6.30;99.90;;;;;;4942784;29;20051;-77
2022/01/26 19:01:35;;;;;;;14.10;9.13;;;6.40;99.90;;;;;;4943362;29;20915;-77
2022/01/26 19:04:00;;;;;;;32.35;9.13;;;6.40;99.90;;;;;;4949047;28;20046;-77
2022/01/26 19:06:26;;;;;;;10.05;7.38;;;6.40;99.90;;;;;;4951571;28;20050;-77
2022/01/26 19:08:52;;;;;;;10.05;6.90;;;6.40;99.90;;;;;;4921850;28;20285;-86
2022/01/26 19:11:20;;;;;;;15.68;7.03;;;6.40;99.90;;;;;;4929944;28;20567;-83
2022/01/26 19:13:50;;;;;;;13.13;10.20;;;6.40;99.90;;;;;;4947952;28;20072;-90
2022/01/26 19:16:55;;;;;;;13.95;7.47;;;6.40;99.90;;;;;;4936354;28;20106;-82
2022/01/26 19:22:00;;;;;;;11.80;6.40;;;6.40;99.90;;;;;;4940615;28;20498;-83
2022/01/26 19:28:27;;;;;;;23.65;9.23;;;6.40;99.90;;;;;;4891471;29;20212;-95